Time;durP1;ratioP1;P1;durP2;ratioP2;P2;SDS_P1;SDS_P2;PMS_P1;PMS_P2;Temp;Humidity;BMP_temperature;BMP_pressure;BME280_temperature;BME280_humidity;BME280_pressure;Samples;Min_cycle;Max_cycle;Signal;HPM_P1;HPM_P2
2023/08/09 00:08:11;;;;;;;15.45;7.68;;;;;;;14.84;100.00;99511.91;12177246;19;20470;-89
2023/08/09 00:12:14;;;;;;;9.10;6.40;;;;;;;14.84;100.00;99509.13;12198482;19;20014;-88
2023/08/09 00:16:16;;;;;;;12.77;7.07;;;;;;;14.84;100.00;99502.78;12177211;19;20014;-88
2023/08/09 00:20:20;;;;;;;18.37;7.37;;;;;;;14.84;100.00;99491.66;12194414;19;20010;-85
2023/08/09 00:24:22;;;;;;;15.27;7.80;;;;;;;14.85;100.00;99501.69;12197851;19;20409;-85
2023/08/09 00:28:23;;;;;;;15.23;7.43;;;;;;;14.84;100.00;99495.28;12178996;19;20025;-88
2023/08/09 00:32:26;;;;;;;13.60;7.53;;;;;;;14.86;100.00;99506.91;12198507;19;20007;-87
2023/08/09 00:36:28;;;;;;;12.70;7.63;;;;;;;14.85;100.00;99494.19;12199740;19;20032;-87
2023/08/09 00:40:30;;;;;;;12.77;7.85;;;;;;;14.84;100.00;99503.59;12181728;19;20028;-88
2023/08/09 00:45:21;;;;;;;13.63;7.40;;;;;;;14.82;100.00;99497.53;12200771;19;20019;-87
2023/08/09 00:49:25;;;;;;;15.27;8.13;;;;;;;14.80;100.00;99494.19;12178661;19;20034;-88
2023/08/09 00:53:28;;;;;;;18.08;7.93;;;;;;;14.81;100.00;99491.16;12210117;19;20032;-87
2023/08/09 00:57:30;;;;;;;16.38;8.15;;;;;;;14.83;100.00;99485.31;12199719;19;20206;-87
2023/08/09 01:01:32;;;;;;;17.08;8.07;;;;;;;14.86;100.00;99489.44;12181600;19;20010;-87
2023/08/09 01:05:50;;;;;;;17.58;7.90;;;;;;;14.88;100.00;99488.06;12199174;19;20058;-88
2023/08/09 01:10:09;;;;;;;16.60;8.48;;;;;;;14.91;100.00;99481.94;12207864;19;20019;-86
2023/08/09 01:14:13;;;;;;;21.77;8.93;;;;;;;14.94;100.00;99484.13;12193824;19;20009;-85
2023/08/09 01:18:16;;;;;;;16.20;8.30;;;;;;;14.93;100.00;99479.72;12207922;19;20046;-85
2023/08/09 01:22:23;;;;;;;19.88;8.07;;;;;;;14.95;100.00;99469.13;12188516;19;20003;-85
2023/08/09 01:26:25;;;;;;;12.57;7.75;;;;;;;14.96;100.00;99484.69;12208612;19;20035;-86
2023/08/09 01:30:27;;;;;;;14.23;7.50;;;;;;;14.99;100.00;99489.66;12208245;19;20010;-87
2023/08/09 01:34:30;;;;;;;16.27;8.23;;;;;;;15.01;100.00;99487.41;12187558;19;20411;-88
2023/08/09 01:38:38;;;;;;;14.25;7.82;;;;;;;15.03;100.00;99489.91;12216292;19;20006;-86
2023/08/09 01:42:40;;;;;;;14.98;8.20;;;;;;;15.05;100.00;99490.47;12223953;19;20122;-85
2023/08/09 01:46:44;;;;;;;13.77;7.70;;;;;;;15.06;100.00;99482.97;12191382;19;20014;-86
2023/08/09 01:50:45;;;;;;;;;;;;;;;15.04;100.00;99489.59;12213315;19;20018;-85
2023/08/09 01:54:48;;;;;;;16.38;7.65;;;;;;;15.05;100.00;99484.91;12210482;19;19911;-85
2023/08/09 01:58:50;;;;;;;13.60;7.65;;;;;;;15.03;100.00;99487.13;12179695;19;20038;-85
2023/08/09 02:02:52;;;;;;;14.18;6.88;;;;;;;15.04;100.00;99478.50;12205383;19;20631;-91
2023/08/09 02:06:56;;;;;;;15.45;7.00;;;;;;;15.05;100.00;99479.38;12211301;19;20018;-88
2023/08/09 02:10:58;;;;;;;15.63;5.95;;;;;;;15.02;100.00;99486.31;12180814;19;20028;-85
2023/08/09 02:15:00;;;;;;;9.73;6.10;;;;;;;15.05;100.00;99479.38;12205776;19;20070;-87
2023/08/09 02:19:03;;;;;;;14.40;6.00;;;;;;;15.09;100.00;99479.59;12182286;19;20013;-88
2023/08/09 02:23:05;;;;;;;11.43;6.20;;;;;;;15.13;100.00;99483.47;12205903;19;20094;-87
2023/08/09 02:27:08;;;;;;;9.48;5.95;;;;;;;15.14;100.00;99477.63;12211009;19;20023;-88
2023/08/09 02:31:10;;;;;;;11.88;7.03;;;;;;;15.16;100.00;99474.56;12184697;19;20074;-88
2023/08/09 02:35:13;;;;;;;12.27;5.95;;;;;;;15.14;100.00;99471.22;12212520;19;20003;-85
2023/08/09 02:39:15;;;;;;;10.90;5.73;;;;;;;15.18;100.00;99483.44;12203800;19;20606;-86
2023/08/09 02:43:21;;;;;;;13.70;5.60;;;;;;;15.17;100.00;99490.94;12181913;19;20011;-85
2023/08/09 02:47:23;;;;;;;17.15;6.32;;;;;;;15.18;100.00;99478.69;12209809;19;20450;-88
2023/08/09 02:51:25;;;;;;;10.77;6.13;;;;;;;15.20;100.00;99478.41;12211469;19;20006;-88
2023/08/09 02:55:27;;;;;;;15.70;5.75;;;;;;;15.21;100.00;99488.41;12192582;19;20011;-90
2023/08/09 02:59:30;;;;;;;11.95;5.72;;;;;;;15.23;100.00;99486.19;12210126;19;20416;-89
2023/08/09 03:03:40;;;;;;;11.13;6.10;;;;;;;15.22;100.00;99485.31;12212812;19;20050;-88
2023/08/09 03:07:42;;;;;;;13.25;6.88;;;;;;;15.22;100.00;99481.72;12192539;19;20050;-88
2023/08/09 03:12:00;;;;;;;12.80;6.57;;;;;;;15.23;100.00;99486.19;12206924;19;20018;-88
2023/08/09 03:16:03;;;;;;;11.52;6.03;;;;;;;15.23;100.00;99494.50;12187335;19;20046;-86
2023/08/09 03:20:14;;;;;;;11.23;6.60;;;;;;;15.23;100.00;99483.41;12206068;19;20121;-88
2023/08/09 03:24:16;;;;;;;9.82;5.93;;;;;;;15.24;100.00;99493.38;12208488;19;20018;-88
2023/08/09 03:28:19;;;;;;;10.02;5.40;;;;;;;15.24;100.00;99485.88;12186104;19;20120;-89
2023/08/09 03:32:20;;;;;;;10.38;5.82;;;;;;;15.25;100.00;99490.28;12213371;19;20025;-86
2023/08/09 03:36:22;;;;;;;10.20;5.43;;;;;;;15.27;100.00;99492.78;12208193;19;20007;-88
2023/08/09 03:40:25;;;;;;;9.38;5.07;;;;;;;15.26;100.00;99514.19;12189645;19;20015;-88
2023/08/09 03:44:28;;;;;;;10.88;5.10;;;;;;;15.26;100.00;99511.41;12214196;19;20030;-89
2023/08/09 03:48:30;;;;;;;10.43;5.50;;;;;;;15.25;100.00;99511.69;12225552;19;20034;-88
2023/08/09 03:52:35;;;;;;;10.90;5.10;;;;;;;15.25;100.00;99515.28;12188775;19;20007;-88
2023/08/09 03:56:37;;;;;;;9.82;5.50;;;;;;;15.24;100.00;99535.00;12205127;19;20006;-88
2023/08/09 04:00:39;;;;;;;11.77;5.57;;;;;;;15.25;100.00;99534.72;12202102;19;20613;-87
2023/08/09 04:04:41;;;;;;;11.13;5.53;;;;;;;15.27;100.00;99528.88;12184964;19;20006;-87
2023/08/09 04:08:42;;;;;;;12.30;5.73;;;;;;;15.27;100.00;99537.22;12205574;19;20603;-87
2023/08/09 04:12:45;;;;;;;;;;;;;;;15.24;100.00;99532.22;12208550;19;20011;-87
2023/08/09 04:16:47;;;;;;;8.52;4.80;;;;;;;15.22;100.00;99535.28;12187079;19;19986;-86
2023/08/09 04:20:50;;;;;;;11.07;5.55;;;;;;;15.23;100.00;99533.38;12209839;19;20029;-87
2023/08/09 04:24:52;;;;;;;17.05;5.68;;;;;;;15.24;100.00;99529.47;12208126;19;20074;-86
2023/08/09 04:28:54;;;;;;;11.90;4.65;;;;;;;15.22;100.00;99532.50;12186792;19;20611;-86
2023/08/09 04:32:55;;;;;;;10.32;5.50;;;;;;;15.26;100.00;99544.72;12205185;19;20031;-86
2023/08/09 04:36:57;;;;;;;10.43;5.27;;;;;;;15.30;100.00;99539.41;12204143;19;20030;-86
2023/08/09 04:40:59;;;;;;;10.07;5.38;;;;;;;15.32;100.00;99544.66;12183785;19;20023;-87
2023/08/09 04:45:01;;;;;;;10.32;4.72;;;;;;;15.37;100.00;99553.78;12218634;19;20378;-87
2023/08/09 04:49:03;;;;;;;12.50;5.50;;;;;;;15.42;100.00;99550.16;12193487;19;20011;-87
2023/08/09 04:53:05;;;;;;;12.57;5.10;;;;;;;15.52;100.00;99538.16;12214025;19;20247;-88
2023/08/09 04:57:07;;;;;;;7.85;5.20;;;;;;;15.61;100.00;99547.50;12215413;19;20464;-87
2023/08/09 05:01:09;;;;;;;10.10;5.93;;;;;;;15.67;100.00;99546.34;12193981;19;20011;-87
2023/08/09 05:05:11;;;;;;;11.63;5.53;;;;;;;15.74;100.00;99546.06;12215728;19;20013;-86
2023/08/09 05:09:12;;;;;;;11.10;5.57;;;;;;;15.80;100.00;99545.72;12214979;19;20023;-86
2023/08/09 05:13:14;;;;;;;11.45;5.32;;;;;;;15.91;100.00;99538.97;12210229;19;20022;-88
2023/08/09 05:17:16;;;;;;;9.85;4.82;;;;;;;16.00;100.00;99539.13;12251812;19;20015;-89
2023/08/09 05:21:18;;;;;;;14.60;5.50;;;;;;;16.10;100.00;99546.56;12259854;19;20015;-87
2023/08/09 05:25:20;;;;;;;9.57;4.22;;;;;;;16.19;100.00;99533.69;12232802;19;20227;-87
2023/08/09 05:29:22;;;;;;;10.68;4.90;;;;;;;16.29;100.00;99541.91;12243338;19;20006;-87
2023/08/09 05:33:24;;;;;;;8.70;4.95;;;;;;;16.35;100.00;99549.06;12245138;19;20019;-88
2023/08/09 05:37:25;;;;;;;9.67;5.30;;;;;;;16.39;100.00;99558.50;12228434;19;20021;-89
2023/08/09 05:41:28;;;;;;;12.02;4.32;;;;;;;16.43;100.00;99561.53;12240119;19;20014;-88
2023/08/09 05:45:29;;;;;;;9.30;4.77;;;;;;;16.45;100.00;99561.22;12229647;19;20014;-87
2023/08/09 05:49:31;;;;;;;9.50;4.47;;;;;;;16.44;100.00;99567.91;12197712;19;20092;-87
2023/08/09 05:53:33;;;;;;;9.10;4.68;;;;;;;16.41;100.00;99570.13;12216705;19;20043;-86
2023/08/09 05:57:36;;;;;;;10.98;5.63;;;;;;;16.38;100.00;99578.25;12216819;19;20031;-87
2023/08/09 06:01:38;;;;;;;9.73;4.85;;;;;;;16.35;100.00;99571.31;12193743;19;20104;-86
2023/08/09 06:05:40;;;;;;;9.88;5.13;;;;;;;16.34;100.00;99583.56;12212941;19;20018;-86
2023/08/09 06:09:43;;;;;;;8.32;4.50;;;;;;;16.32;100.00;99580.25;12210654;19;20058;-86
2023/08/09 06:13:45;;;;;;;8.07;5.03;;;;;;;16.31;100.00;99584.16;12187768;19;20109;-86
2023/08/09 06:17:48;;;;;;;8.57;4.10;;;;;;;16.29;100.00;99589.19;12212476;19;20652;-85
2023/08/09 06:21:49;;;;;;;8.53;5.07;;;;;;;16.28;100.00;99584.75;12213223;19;20011;-86
2023/08/09 06:25:51;;;;;;;9.73;4.80;;;;;;;16.29;100.00;99600.31;12192422;19;20082;-86
2023/08/09 06:29:53;;;;;;;11.35;5.40;;;;;;;16.30;100.00;99604.75;12211809;19;20014;-88
2023/08/09 06:33:55;;;;;;;10.35;5.75;;;;;;;16.33;100.00;99597.75;12218676;19;20026;-88
2023/08/09 06:37:56;;;;;;;11.90;6.13;;;;;;;16.32;100.00;99602.50;12192971;19;20045;-86
2023/08/09 06:42:16;;;;;;;8.98;4.30;;;;;;;16.34;100.00;99605.00;12213748;19;20596;-88
2023/08/09 06:46:22;;;;;;;10.52;4.30;;;;;;;16.37;100.00;99616.34;12188249;19;20580;-86
2023/08/09 06:50:24;;;;;;;9.70;5.40;;;;;;;16.41;100.00;99613.81;12212461;19;20015;-87
2023/08/09 06:54:27;;;;;;;9.73;4.83;;;;;;;16.49;100.00;99613.19;12216387;19;20010;-86
2023/08/09 06:58:29;;;;;;;10.25;4.88;;;;;;;16.61;100.00;99621.94;12192310;19;20473;-85
2023/08/09 07:02:33;;;;;;;9.27;4.97;;;;;;;16.70;100.00;99624.09;12211778;19;20011;-87
2023/08/09 07:06:35;;;;;;;9.93;6.18;;;;;;;16.73;100.00;99624.34;12214914;19;20071;-87
2023/08/09 07:10:37;;;;;;;8.38;4.32;;;;;;;16.83;100.00;99629.78;12189531;19;20023;-86
2023/08/09 07:14:38;;;;;;;6.65;4.95;;;;;;;16.92;100.00;99637.50;12211396;19;20103;-85
2023/08/09 07:18:40;;;;;;;9.63;4.40;;;;;;;17.03;100.00;99630.69;12210344;19;20108;-85
2023/08/09 07:22:43;;;;;;;11.50;4.90;;;;;;;17.22;100.00;99630.72;12189709;19;20477;-86
2023/08/09 07:26:46;;;;;;;10.07;4.28;;;;;;;17.34;100.00;99641.44;12213082;19;20094;-85
2023/08/09 07:30:51;;;;;;;9.80;3.92;;;;;;;17.45;100.00;99645.75;12214200;19;20032;-86
2023/08/09 07:34:53;;;;;;;8.98;3.83;;;;;;;17.49;100.00;99636.50;12191570;19;20075;-85
2023/08/09 07:38:55;;;;;;;7.33;3.60;;;;;;;17.56;100.00;99652.03;12208086;19;20368;-84
2023/08/09 07:42:58;;;;;;;6.13;3.90;;;;;;;17.64;100.00;99646.59;12206348;19;20042;-85
2023/08/09 07:47:00;;;;;;;6.13;4.03;;;;;;;17.62;100.00;99650.81;12181857;19;20019;-85
2023/08/09 07:51:02;;;;;;;9.05;4.30;;;;;;;17.49;100.00;99652.38;12204054;19;20048;-86
2023/08/09 07:55:05;;;;;;;10.77;4.60;;;;;;;17.52;100.00;99658.19;12180047;19;20066;-86
2023/08/09 07:59:07;;;;;;;10.93;3.45;;;;;;;17.57;100.00;99671.19;12183202;19;20280;-85
2023/08/09 08:03:09;;;;;;;8.93;4.22;;;;;;;17.48;100.00;99676.63;12204356;19;20013;-85
2023/08/09 08:07:17;;;;;;;7.47;3.90;;;;;;;17.56;100.00;99685.44;12185649;19;20410;-88
2023/08/09 08:11:23;;;;;;;6.80;3.88;;;;;;;17.59;100.00;99701.56;12205913;19;20009;-90
2023/08/09 08:15:25;;;;;;;11.27;4.35;;;;;;;17.68;100.00;99708.13;12219945;19;20018;-88
2023/08/09 08:19:27;;;;;;;6.40;4.20;;;;;;;17.75;100.00;99714.97;12218900;19;20044;-89
2023/08/09 08:23:32;;;;;;;13.30;4.07;;;;;;;17.81;100.00;99718.56;12220811;19;20018;-88
2023/08/09 08:27:37;;;;;;;7.80;3.90;;;;;;;17.72;100.00;99729.50;12219321;19;20022;-90
2023/08/09 08:31:40;;;;;;;11.30;4.63;;;;;;;17.69;100.00;99724.53;12197524;19;20817;-90
2023/08/09 08:35:48;;;;;;;6.75;4.03;;;;;;;17.60;100.00;99733.88;12229659;19;20032;-89
2023/08/09 08:40:07;;;;;;;7.87;3.77;;;;;;;17.46;100.00;99730.97;12196776;19;20007;-88
2023/08/09 08:44:11;;;;;;;6.32;3.65;;;;;;;17.48;100.00;99734.28;12218488;19;20018;-85
2023/08/09 08:48:14;;;;;;;7.25;4.10;;;;;;;17.57;100.00;99738.06;12217679;19;20014;-86
2023/08/09 08:52:16;;;;;;;9.27;3.65;;;;;;;17.73;100.00;99747.91;12195493;19;20027;-85
2023/08/09 08:56:19;;;;;;;6.38;3.47;;;;;;;17.85;100.00;99741.09;12217788;19;20017;-86
2023/08/09 09:00:22;;;;;;;5.22;3.30;;;;;;;17.87;100.00;99747.19;12214212;19;20015;-85
2023/08/09 09:04:28;;;;;;;8.02;3.85;;;;;;;17.90;100.00;99746.59;12198002;19;20407;-85
2023/08/09 09:08:39;;;;;;;10.23;3.72;;;;;;;17.98;100.00;99754.28;12213945;19;20019;-85
2023/08/09 09:12:41;;;;;;;12.63;4.35;;;;;;;18.00;100.00;99763.19;12216446;19;20014;-86
2023/08/09 09:16:43;;;;;;;6.23;3.70;;;;;;;17.88;100.00;99760.00;12194025;19;20010;-88
2023/08/09 09:20:45;;;;;;;6.90;4.47;;;;;;;17.68;100.00;99747.13;12217499;19;20053;-87
2023/08/09 09:24:47;;;;;;;6.80;3.77;;;;;;;17.67;100.00;99751.88;12216211;19;20106;-88
2023/08/09 09:28:49;;;;;;;4.32;2.65;;;;;;;17.95;100.00;99754.88;12194278;19;20235;-88
2023/08/09 09:32:56;;;;;;;3.27;1.60;;;;;;;17.90;100.00;99766.91;12226454;19;20033;-89
2023/08/09 09:36:58;;;;;;;2.72;1.20;;;;;;;17.69;100.00;99771.91;12217178;19;20022;-87
2023/08/09 09:41:01;;;;;;;4.43;1.20;;;;;;;17.38;100.00;99756.72;12195842;19;20050;-86
2023/08/09 09:45:05;;;;;;;1.52;0.95;;;;;;;17.26;100.00;99752.38;12216460;19;20010;-86
2023/08/09 09:49:07;;;;;;;3.15;1.25;;;;;;;17.25;100.00;99759.06;12193403;19;20541;-85
2023/08/09 09:53:11;;;;;;;2.60;1.13;;;;;;;16.99;100.00;99758.50;12216986;19;20007;-87
2023/08/09 09:57:13;;;;;;;5.55;1.20;;;;;;;16.81;100.00;99765.63;12219655;19;20466;-88
2023/08/09 10:01:19;;;;;;;4.15;1.13;;;;;;;16.91;100.00;99775.00;12192447;19;20015;-84
2023/08/09 10:05:25;;;;;;;2.95;1.38;;;;;;;16.96;100.00;99772.19;12214736;19;20011;-83
2023/08/09 10:09:29;;;;;;;2.13;1.27;;;;;;;17.43;100.00;99776.13;12211225;19;20010;-83
2023/08/09 10:13:32;;;;;;;3.28;1.20;;;;;;;18.20;100.00;99776.84;12191144;19;20011;-84
2023/08/09 10:17:35;;;;;;;1.48;1.05;;;;;;;18.73;100.00;99770.16;12213164;19;20764;-85
2023/08/09 10:21:40;;;;;;;1.63;1.00;;;;;;;19.29;100.00;99777.53;12212452;19;20002;-84
2023/08/09 10:25:46;;;;;;;1.75;0.80;;;;;;;19.72;100.00;99782.88;12187385;19;20010;-84
2023/08/09 10:29:56;;;;;;;2.22;0.80;;;;;;;20.06;100.00;99783.53;12204900;19;20003;-83
2023/08/09 10:34:07;;;;;;;1.92;0.95;;;;;;;20.06;100.00;99795.56;12198962;19;20041;-83
2023/08/09 10:38:13;;;;;;;1.45;0.90;;;;;;;19.85;100.00;99791.56;12183808;19;20014;-84
2023/08/09 10:42:15;;;;;;;1.25;0.68;;;;;;;19.98;100.00;99797.09;12200646;19;20089;-85
2023/08/09 10:46:19;;;;;;;0.75;0.60;;;;;;;20.47;100.00;99795.44;12181062;19;20538;-85
2023/08/09 10:50:22;;;;;;;0.85;0.70;;;;;;;20.71;100.00;99792.38;12204372;19;20413;-85
2023/08/09 10:54:25;;;;;;;1.33;0.80;;;;;;;21.03;100.00;99789.59;12203010;19;20027;-86
2023/08/09 10:58:28;;;;;;;3.97;1.40;;;;;;;21.16;100.00;99800.75;12178484;19;20010;-85
2023/08/09 11:02:36;;;;;;;1.45;1.00;;;;;;;21.11;100.00;99797.25;12197710;19;20018;-86
2023/08/09 11:06:43;;;;;;;2.10;0.80;;;;;;;20.95;100.00;99813.63;12203417;19;20094;-83
2023/08/09 11:10:46;;;;;;;2.90;0.73;;;;;;;21.07;100.00;99807.44;12187970;19;20035;-86
2023/08/09 11:14:48;;;;;;;1.38;0.90;;;;;;;21.15;100.00;99806.69;12214801;19;20011;-86
2023/08/09 11:18:59;;;;;;;1.67;0.70;;;;;;;21.26;100.00;99812.81;12199738;19;20011;-85
2023/08/09 11:23:03;;;;;;;1.30;0.77;;;;;;;21.48;100.00;99817.59;12182866;19;20006;-86
2023/08/09 11:27:05;;;;;;;1.20;0.80;;;;;;;21.73;100.00;99816.88;12204930;19;20014;-86
2023/08/09 11:31:07;;;;;;;1.15;0.60;;;;;;;21.87;100.00;99821.56;12184948;19;20014;-86
2023/08/09 11:35:09;;;;;;;1.27;0.73;;;;;;;22.12;100.00;99820.78;12204725;19;20469;-86
2023/08/09 11:39:13;;;;;;;1.95;0.93;;;;;;;22.35;100.00;99817.91;12206849;19;20006;-86
2023/08/09 11:43:17;;;;;;;0.93;0.70;;;;;;;22.63;100.00;99819.22;12185197;19;20027;-85
2023/08/09 11:47:19;;;;;;;1.77;0.70;;;;;;;23.04;90.96;99817.06;12198625;19;20010;-86
2023/08/09 11:51:21;;;;;;;1.35;0.60;;;;;;;23.02;92.12;99820.19;12198640;19;20114;-86
2023/08/09 11:55:24;;;;;;;0.80;0.50;;;;;;;23.30;94.79;99808.59;12178230;19;20090;-84
2023/08/09 11:59:26;;;;;;;3.30;0.68;;;;;;;23.59;92.35;99822.72;12202411;19;20045;-85
2023/08/09 12:03:28;;;;;;;1.27;0.90;;;;;;;23.58;87.04;99820.22;12202912;19;20015;-85
2023/08/09 12:07:30;;;;;;;2.77;0.83;;;;;;;23.38;85.41;99819.81;12179284;19;20569;-84
2023/08/09 12:11:31;;;;;;;2.97;0.60;;;;;;;23.15;82.60;99822.00;12197674;19;20053;-84
2023/08/09 12:15:34;;;;;;;1.47;0.90;;;;;;;23.23;82.11;99825.97;12203297;19;20853;-82
2023/08/09 12:19:36;;;;;;;;;;;;;;;23.52;80.20;99830.84;12179455;19;20385;-83
2023/08/09 12:23:38;;;;;;;1.13;0.73;;;;;;;23.41;75.20;99826.75;12203602;19;19911;-83
2023/08/09 12:27:40;;;;;;;1.65;0.75;;;;;;;23.38;76.81;99831.06;12201897;19;20521;-83
2023/08/09 12:31:42;;;;;;;2.47;1.48;;;;;;;23.49;77.35;99844.75;12181557;19;20477;-83
2023/08/09 12:35:44;;;;;;;4.20;1.92;;;;;;;23.52;76.82;99839.28;12203115;19;20016;-82
2023/08/09 12:39:48;;;;;;;4.17;1.50;;;;;;;23.60;77.91;99844.06;12202561;19;20023;-83
2023/08/09 12:43:50;;;;;;;3.95;1.38;;;;;;;23.74;71.66;99848.69;12182614;19;20011;-83
2023/08/09 12:47:53;;;;;;;3.72;1.48;;;;;;;23.70;73.56;99856.13;12200945;19;20010;-82
2023/08/09 12:51:54;;;;;;;2.95;1.38;;;;;;;23.80;70.47;99850.97;12201525;19;20011;-82
2023/08/09 12:55:57;;;;;;;2.55;1.45;;;;;;;23.79;72.71;99848.47;12187767;19;20023;-82
2023/08/09 12:59:59;;;;;;;3.45;1.35;;;;;;;23.78;76.28;99858.91;12205261;19;20011;-83
2023/08/09 13:04:02;;;;;;;2.27;1.20;;;;;;;23.70;73.14;99862.56;12200570;19;20014;-82
2023/08/09 13:08:04;;;;;;;3.25;1.17;;;;;;;23.50;71.89;99854.81;12219687;19;20014;-83
2023/08/09 13:12:08;;;;;;;2.75;1.00;;;;;;;23.33;73.46;99869.78;12213348;19;20066;-82
2023/08/09 13:16:11;;;;;;;3.08;0.90;;;;;;;23.18;74.41;99874.75;12201717;19;20022;-83
2023/08/09 13:20:13;;;;;;;;;;;;;;;22.87;76.78;99874.06;12217966;19;20017;-82
2023/08/09 13:24:14;;;;;;;2.00;1.00;;;;;;;22.92;77.52;99871.94;12220800;19;20785;-84
2023/08/09 13:28:19;;;;;;;2.20;1.37;;;;;;;23.01;74.90;99868.31;12198277;19;20015;-83
2023/08/09 13:32:21;;;;;;;3.15;1.00;;;;;;;22.85;74.18;99866.00;12224030;19;20015;-83
2023/08/09 13:36:25;;;;;;;1.55;0.85;;;;;;;22.84;76.34;99863.50;12227595;19;19998;-84
2023/08/09 13:40:27;;;;;;;1.52;1.00;;;;;;;22.80;78.86;99879.38;12205149;19;20022;-82
2023/08/09 13:44:28;;;;;;;2.50;1.20;;;;;;;22.81;79.10;99872.59;12226454;19;20046;-83
2023/08/09 13:48:30;;;;;;;3.60;0.93;;;;;;;22.82;78.54;99872.28;12227888;19;20045;-82
2023/08/09 13:52:32;;;;;;;5.87;1.23;;;;;;;22.82;78.46;99871.44;12208364;19;20014;-82
2023/08/09 13:56:34;;;;;;;1.90;1.17;;;;;;;22.77;81.77;99874.41;12232624;19;20014;-83
2023/08/09 14:00:37;;;;;;;2.10;1.10;;;;;;;22.78;73.95;99881.69;12238073;19;20247;-83
2023/08/09 14:04:39;;;;;;;2.50;1.10;;;;;;;22.57;76.56;99875.88;12211519;19;20023;-83
2023/08/09 14:08:41;;;;;;;3.67;1.37;;;;;;;22.58;77.18;99875.56;12224619;19;20078;-82
2023/08/09 14:12:43;;;;;;;3.73;1.13;;;;;;;22.62;75.65;99879.34;12218259;19;20293;-84
2023/08/09 14:16:45;;;;;;;2.92;1.23;;;;;;;22.60;75.43;99886.44;12204851;19;20025;-82
2023/08/09 14:20:47;;;;;;;1.92;1.10;;;;;;;22.56;77.70;99875.06;12225870;19;20026;-82
2023/08/09 14:24:48;;;;;;;3.83;1.00;;;;;;;22.48;78.78;99876.69;12227505;19;20023;-83
2023/08/09 14:28:50;;;;;;;1.63;1.00;;;;;;;22.49;76.31;99869.94;12213369;19;20017;-81
2023/08/09 14:32:52;;;;;;;4.10;1.10;;;;;;;22.48;75.47;99879.50;12238875;19;20007;-82
2023/08/09 14:36:54;;;;;;;2.13;1.40;;;;;;;22.46;76.16;99883.81;12234652;19;20449;-82
2023/08/09 14:40:55;;;;;;;2.73;1.00;;;;;;;22.38;75.97;99879.81;12188706;19;20545;-82
2023/08/09 14:44:57;;;;;;;5.07;1.30;;;;;;;22.32;75.78;99880.31;12210565;19;20011;-82
2023/08/09 14:48:59;;;;;;;3.17;1.10;;;;;;;22.34;76.48;99886.41;12210959;19;20010;-83
2023/08/09 14:53:05;;;;;;;2.85;1.00;;;;;;;22.36;77.44;99889.72;12192741;19;20713;-83
2023/08/09 14:57:10;;;;;;;2.75;1.30;;;;;;;22.24;78.12;99888.38;12207663;19;20626;-83
2023/08/09 15:01:12;;;;;;;3.67;1.50;;;;;;;22.30;79.66;99892.66;12185561;19;20691;-83
2023/08/09 15:05:14;;;;;;;3.03;1.02;;;;;;;22.25;75.70;99897.63;12206535;19;20362;-83
2023/08/09 15:09:16;;;;;;;;;;;;;;;22.19;75.42;99893.28;12206529;19;20067;-83
2023/08/09 15:13:21;;;;;;;2.60;1.52;;;;;;;22.28;76.07;99900.59;12183726;19;19988;-83
2023/08/09 15:17:23;;;;;;;2.05;1.27;;;;;;;22.24;75.58;99910.00;12205828;19;20007;-83
2023/08/09 15:21:26;;;;;;;2.80;1.00;;;;;;;22.26;75.13;99908.53;12206927;19;20038;-83
2023/08/09 15:25:28;;;;;;;2.80;1.13;;;;;;;22.28;74.24;99911.84;12181844;19;20027;-82
2023/08/09 15:29:30;;;;;;;2.77;1.10;;;;;;;22.32;74.07;99914.81;12204685;19;20053;-83
2023/08/09 15:33:31;;;;;;;5.00;1.30;;;;;;;22.38;75.05;99918.31;12205386;19;20014;-83
2023/08/09 15:37:34;;;;;;;3.77;1.67;;;;;;;22.32;73.78;99914.00;12183879;19;20494;-83
2023/08/09 15:41:36;;;;;;;3.42;1.33;;;;;;;22.35;72.20;99904.91;12205221;19;20031;-82
2023/08/09 15:45:38;;;;;;;2.83;1.25;;;;;;;22.37;73.70;99911.88;12203996;19;20015;-82
2023/08/09 15:49:40;;;;;;;2.23;1.20;;;;;;;22.35;73.41;99911.34;12184895;19;20015;-83
2023/08/09 15:53:42;;;;;;;2.97;1.20;;;;;;;22.46;71.04;99920.31;12205270;19;20482;-83
2023/08/09 15:57:43;;;;;;;3.78;1.40;;;;;;;22.53;72.46;99926.25;12203151;19;20010;-82
2023/08/09 16:01:45;;;;;;;3.30;1.23;;;;;;;22.50;71.74;99926.91;12180898;19;20490;-82
2023/08/09 16:05:47;;;;;;;2.97;1.30;;;;;;;22.46;71.64;99917.50;12203609;19;20468;-82
2023/08/09 16:09:49;;;;;;;1.93;1.10;;;;;;;22.52;70.35;99916.19;12203529;19;20070;-83
2023/08/09 16:13:51;;;;;;;;;;;;;;;22.65;69.95;99926.44;12175471;19;20025;-82
2023/08/09 16:17:53;;;;;;;2.92;1.10;;;;;;;22.64;69.51;99932.41;12207512;19;20289;-83
2023/08/09 16:21:55;;;;;;;2.67;1.30;;;;;;;22.47;68.58;99941.59;12208034;19;20027;-83
2023/08/09 16:25:57;;;;;;;3.25;1.23;;;;;;;22.53;68.33;99935.50;12182748;19;20081;-82
2023/08/09 16:30:00;;;;;;;1.80;0.97;;;;;;;22.40;68.78;99930.00;12200903;19;20082;-83
2023/08/09 16:34:02;;;;;;;7.18;1.48;;;;;;;22.08;69.62;99943.25;12220168;19;20336;-82
2023/08/09 16:38:04;;;;;;;4.07;1.38;;;;;;;21.85;71.81;99945.28;12229344;19;20468;-83
2023/08/09 16:42:06;;;;;;;4.45;1.30;;;;;;;21.50;72.66;99941.44;12218323;19;20014;-83
2023/08/09 16:46:08;;;;;;;5.20;1.48;;;;;;;21.28;74.32;99942.25;12191707;19;20055;-83
2023/08/09 16:50:11;;;;;;;2.63;1.30;;;;;;;21.04;75.71;99934.97;12214175;19;20070;-84
2023/08/09 16:54:12;;;;;;;2.42;1.30;;;;;;;20.92;77.61;99945.91;12212558;19;20059;-83
2023/08/09 16:58:16;;;;;;;4.35;1.10;;;;;;;20.77;78.18;99952.69;12190414;19;20021;-83
2023/08/09 17:02:18;;;;;;;6.47;1.30;;;;;;;20.57;78.51;99948.38;12215153;19;20534;-83
2023/08/09 17:06:21;;;;;;;3.05;1.45;;;;;;;20.44;81.06;99947.22;12213385;19;20011;-83
2023/08/09 17:10:26;;;;;;;3.60;1.65;;;;;;;20.34;81.55;99955.81;12191096;19;20007;-83
2023/08/09 17:14:28;;;;;;;7.18;1.60;;;;;;;20.15;83.37;99966.28;12210559;19;20007;-84
2023/08/09 17:18:29;;;;;;;3.40;1.50;;;;;;;20.08;85.29;99965.84;12217881;19;20011;-83
2023/08/09 17:22:31;;;;;;;6.30;1.58;;;;;;;20.19;84.66;99961.72;12189758;19;20058;-83
2023/08/09 17:26:33;;;;;;;6.37;1.30;;;;;;;20.19;85.95;99968.16;12209293;19;20023;-83
2023/08/09 17:30:35;;;;;;;2.85;1.38;;;;;;;20.11;86.74;99966.09;12210843;19;20015;-83
2023/08/09 17:34:36;;;;;;;2.35;1.30;;;;;;;20.03;87.49;99964.81;12191168;19;20120;-83
2023/08/09 17:38:38;;;;;;;2.83;1.40;;;;;;;19.97;89.37;99966.06;12213377;19;20018;-82
2023/08/09 17:42:42;;;;;;;6.30;1.70;;;;;;;19.87;91.57;99977.47;12212385;19;20466;-82
2023/08/09 17:46:44;;;;;;;7.82;1.65;;;;;;;19.77;94.19;99967.25;12185749;19;20022;-82
2023/08/09 17:50:46;;;;;;;2.53;1.30;;;;;;;19.73;92.22;99983.00;12210272;19;20007;-82
2023/08/09 17:54:48;;;;;;;4.97;1.65;;;;;;;19.65;93.27;99983.69;12209985;19;20066;-84
2023/08/09 17:58:50;;;;;;;6.00;1.58;;;;;;;19.43;94.86;99992.72;12190354;19;20596;-82
2023/08/09 18:02:52;;;;;;;3.20;1.45;;;;;;;19.25;96.97;100004.75;12209943;19;20021;-83
2023/08/09 18:06:54;;;;;;;6.43;1.60;;;;;;;19.29;99.44;100005.78;12210229;19;20018;-83
2023/08/09 18:10:56;;;;;;;3.05;1.30;;;;;;;19.01;100.00;100010.41;12187411;19;20015;-85
2023/08/09 18:14:59;;;;;;;2.88;1.48;;;;;;;18.70;100.00;100012.75;12223678;19;20010;-83
2023/08/09 18:19:02;;;;;;;7.38;2.05;;;;;;;18.47;100.00;100022.78;12199926;19;20490;-83
2023/08/09 18:23:05;;;;;;;12.73;1.80;;;;;;;18.27;100.00;100030.28;12210047;19;20129;-83
2023/08/09 18:27:07;;;;;;;6.88;2.05;;;;;;;18.03;100.00;100037.78;12209078;19;20032;-83
2023/08/09 18:31:09;;;;;;;7.00;1.75;;;;;;;17.80;100.00;100031.03;12186210;19;20014;-83
2023/08/09 18:35:11;;;;;;;4.15;2.05;;;;;;;17.55;100.00;100032.88;12211753;19;20014;-83
2023/08/09 18:39:19;;;;;;;11.13;2.05;;;;;;;17.30;100.00;100037.50;12211712;19;20393;-83
2023/08/09 18:43:20;;;;;;;6.50;2.00;;;;;;;17.11;100.00;100041.28;12189578;19;20092;-83
2023/08/09 18:47:22;;;;;;;10.57;2.20;;;;;;;16.92;100.00;100039.13;12207139;19;20015;-83